sensor_id;sensor_type;location;lat;lon;timestamp;P1;durP1;ratioP1;P2;durP2;ratioP2
1344;SDS011;15375;48.540;9.268;2024-03-02T00:00:10;20.73;;;14.37;;
1344;SDS011;15375;48.540;9.268;2024-03-02T00:02:45;21.93;;;14.50;;
1344;SDS011;15375;48.540;9.268;2024-03-02T00:05:12;18.93;;;13.00;;
1344;SDS011;15375;48.540;9.268;2024-03-02T00:07:41;18.30;;;11.50;;
1344;SDS011;15375;48.540;9.268;2024-03-02T00:10:08;17.40;;;12.23;;
1344;SDS011;15375;48.540;9.268;2024-03-02T00:12:36;16.57;;;13.07;;
1344;SDS011;15375;48.540;9.268;2024-03-02T00:15:06;22.10;;;14.53;;
1344;SDS011;15375;48.540;9.268;2024-03-02T00:17:46;17.07;;;12.67;;
1344;SDS011;15375;48.540;9.268;2024-03-02T00:20:17;18.13;;;12.00;;
1344;SDS011;15375;48.540;9.268;2024-03-02T00:22:46;16.73;;;13.00;;
1344;SDS011;15375;48.540;9.268;2024-03-02T00:25:11;21.23;;;12.70;;
1344;SDS011;15375;48.540;9.268;2024-03-02T00:27:37;17.17;;;12.83;;
1344;SDS011;15375;48.540;9.268;2024-03-02T00:30:06;17.70;;;11.60;;
1344;SDS011;15375;48.540;9.268;2024-03-02T00:32:57;19.40;;;12.67;;
1344;SDS011;15375;48.540;9.268;2024-03-02T00:35:24;17.93;;;12.80;;
1344;SDS011;15375;48.540;9.268;2024-03-02T00:37:49;17.07;;;12.30;;
1344;SDS011;15375;48.540;9.268;2024-03-02T00:40:15;18.27;;;12.90;;
1344;SDS011;15375;48.540;9.268;2024-03-02T00:42:41;20.80;;;13.53;;
1344;SDS011;15375;48.540;9.268;2024-03-02T00:45:10;18.33;;;12.37;;
1344;SDS011;15375;48.540;9.268;2024-03-02T00:47:41;20.80;;;14.30;;
1344;SDS011;15375;48.540;9.268;2024-03-02T00:50:07;21.70;;;13.63;;
1344;SDS011;15375;48.540;9.268;2024-03-02T00:52:33;16.77;;;13.47;;
1344;SDS011;15375;48.540;9.268;2024-03-02T00:54:59;21.73;;;13.10;;
1344;SDS011;15375;48.540;9.268;2024-03-02T00:57:25;19.70;;;12.83;;
1344;SDS011;15375;48.540;9.268;2024-03-02T00:59:51;21.30;;;13.00;;
1344;SDS011;15375;48.540;9.268;2024-03-02T01:02:17;20.27;;;12.77;;
1344;SDS011;15375;48.540;9.268;2024-03-02T01:04:45;18.63;;;12.20;;
1344;SDS011;15375;48.540;9.268;2024-03-02T01:07:10;19.10;;;12.10;;
1344;SDS011;15375;48.540;9.268;2024-03-02T01:09:35;17.53;;;12.20;;
1344;SDS011;15375;48.540;9.268;2024-03-02T01:12:01;16.03;;;11.10;;
1344;SDS011;15375;48.540;9.268;2024-03-02T01:14:26;18.03;;;12.43;;
1344;SDS011;15375;48.540;9.268;2024-03-02T01:16:51;18.43;;;12.40;;
1344;SDS011;15375;48.540;9.268;2024-03-02T01:19:17;17.63;;;11.60;;
1344;SDS011;15375;48.540;9.268;2024-03-02T01:21:43;14.77;;;10.80;;
1344;SDS011;15375;48.540;9.268;2024-03-02T01:24:08;15.73;;;11.63;;
1344;SDS011;15375;48.540;9.268;2024-03-02T01:26:33;19.80;;;12.80;;
1344;SDS011;15375;48.540;9.268;2024-03-02T01:28:59;15.90;;;11.07;;
1344;SDS011;15375;48.540;9.268;2024-03-02T01:31:24;14.73;;;11.77;;
1344;SDS011;15375;48.540;9.268;2024-03-02T01:33:49;19.37;;;10.87;;
1344;SDS011;15375;48.540;9.268;2024-03-02T01:36:15;17.07;;;12.90;;
1344;SDS011;15375;48.540;9.268;2024-03-02T01:38:40;13.00;;;10.30;;
1344;SDS011;15375;48.540;9.268;2024-03-02T01:41:06;19.07;;;12.00;;
1344;SDS011;15375;48.540;9.268;2024-03-02T01:43:32;16.97;;;11.80;;
1344;SDS011;15375;48.540;9.268;2024-03-02T01:45:57;16.33;;;10.83;;
1344;SDS011;15375;48.540;9.268;2024-03-02T01:48:23;17.50;;;12.50;;
1344;SDS011;15375;48.540;9.268;2024-03-02T01:50:48;19.50;;;13.53;;
1344;SDS011;15375;48.540;9.268;2024-03-02T01:53:13;21.57;;;13.50;;
1344;SDS011;15375;48.540;9.268;2024-03-02T01:55:38;19.60;;;12.60;;
1344;SDS011;15375;48.540;9.268;2024-03-02T01:58:04;19.73;;;13.37;;
1344;SDS011;15375;48.540;9.268;2024-03-02T02:00:30;16.20;;;12.67;;
1344;SDS011;15375;48.540;9.268;2024-03-02T02:02:57;21.93;;;15.20;;
1344;SDS011;15375;48.540;9.268;2024-03-02T02:05:23;20.47;;;14.80;;
1344;SDS011;15375;48.540;9.268;2024-03-02T02:07:48;23.40;;;14.97;;
1344;SDS011;15375;48.540;9.268;2024-03-02T02:10:14;20.23;;;14.50;;
1344;SDS011;15375;48.540;9.268;2024-03-02T02:12:39;18.53;;;13.23;;
1344;SDS011;15375;48.540;9.268;2024-03-02T02:17:53;17.90;;;11.27;;
1344;SDS011;15375;48.540;9.268;2024-03-02T02:20:19;15.90;;;10.97;;
1344;SDS011;15375;48.540;9.268;2024-03-02T02:22:57;20.23;;;12.70;;
1344;SDS011;15375;48.540;9.268;2024-03-02T02:25:24;19.20;;;11.83;;
1344;SDS011;15375;48.540;9.268;2024-03-02T02:27:49;15.30;;;10.17;;
1344;SDS011;15375;48.540;9.268;2024-03-02T02:30:18;17.53;;;12.07;;
1344;SDS011;15375;48.540;9.268;2024-03-02T02:32:49;17.40;;;11.50;;
1344;SDS011;15375;48.540;9.268;2024-03-02T02:35:17;16.30;;;10.70;;
1344;SDS011;15375;48.540;9.268;2024-03-02T02:37:43;18.53;;;13.53;;
1344;SDS011;15375;48.540;9.268;2024-03-02T02:40:11;16.50;;;11.60;;
1344;SDS011;15375;48.540;9.268;2024-03-02T02:42:37;18.23;;;11.07;;
1344;SDS011;15375;48.540;9.268;2024-03-02T02:45:03;20.57;;;11.83;;
1344;SDS011;15375;48.540;9.268;2024-03-02T02:47:28;17.47;;;11.87;;
1344;SDS011;15375;48.540;9.268;2024-03-02T02:49:54;17.60;;;13.67;;
1344;SDS011;15375;48.540;9.268;2024-03-02T02:52:20;21.17;;;14.03;;
1344;SDS011;15375;48.540;9.268;2024-03-02T02:54:46;21.80;;;13.63;;
1344;SDS011;15375;48.540;9.268;2024-03-02T02:57:11;20.37;;;13.47;;
1344;SDS011;15375;48.540;9.268;2024-03-02T02:59:37;18.13;;;12.23;;
1344;SDS011;15375;48.540;9.268;2024-03-02T03:02:02;18.67;;;12.97;;
1344;SDS011;15375;48.540;9.268;2024-03-02T03:04:27;19.43;;;12.37;;
1344;SDS011;15375;48.540;9.268;2024-03-02T03:06:53;19.30;;;12.50;;
1344;SDS011;15375;48.540;9.268;2024-03-02T03:09:18;17.40;;;11.40;;
1344;SDS011;15375;48.540;9.268;2024-03-02T03:11:43;21.67;;;13.00;;
1344;SDS011;15375;48.540;9.268;2024-03-02T03:14:09;18.27;;;10.67;;
1344;SDS011;15375;48.540;9.268;2024-03-02T03:16:34;18.43;;;11.77;;
1344;SDS011;15375;48.540;9.268;2024-03-02T03:19:00;17.63;;;12.73;;
1344;SDS011;15375;48.540;9.268;2024-03-02T03:21:26;21.07;;;11.83;;
1344;SDS011;15375;48.540;9.268;2024-03-02T03:23:51;17.73;;;11.87;;
1344;SDS011;15375;48.540;9.268;2024-03-02T03:26:16;23.90;;;12.80;;
1344;SDS011;15375;48.540;9.268;2024-03-02T03:28:42;17.93;;;12.60;;
1344;SDS011;15375;48.540;9.268;2024-03-02T03:31:07;20.87;;;12.03;;
1344;SDS011;15375;48.540;9.268;2024-03-02T03:33:33;16.70;;;11.33;;
1344;SDS011;15375;48.540;9.268;2024-03-02T03:35:58;19.83;;;13.20;;
1344;SDS011;15375;48.540;9.268;2024-03-02T03:38:23;24.33;;;14.90;;
1344;SDS011;15375;48.540;9.268;2024-03-02T03:40:49;18.40;;;12.93;;
1344;SDS011;15375;48.540;9.268;2024-03-02T03:43:14;24.60;;;13.00;;
1344;SDS011;15375;48.540;9.268;2024-03-02T03:45:39;20.87;;;13.40;;
1344;SDS011;15375;48.540;9.268;2024-03-02T03:48:05;21.13;;;12.70;;
1344;SDS011;15375;48.540;9.268;2024-03-02T03:50:30;19.80;;;12.93;;
1344;SDS011;15375;48.540;9.268;2024-03-02T03:52:56;19.33;;;12.63;;
1344;SDS011;15375;48.540;9.268;2024-03-02T03:55:21;15.33;;;11.33;;
1344;SDS011;15375;48.540;9.268;2024-03-02T03:57:46;21.80;;;14.37;;
1344;SDS011;15375;48.540;9.268;2024-03-02T04:00:12;20.87;;;12.67;;
1344;SDS011;15375;48.540;9.268;2024-03-02T04:02:38;21.97;;;12.87;;
1344;SDS011;15375;48.540;9.268;2024-03-02T04:05:03;21.27;;;11.97;;
1344;SDS011;15375;48.540;9.268;2024-03-02T04:07:33;19.30;;;12.30;;
1344;SDS011;15375;48.540;9.268;2024-03-02T04:10:09;19.27;;;12.70;;
1344;SDS011;15375;48.540;9.268;2024-03-02T04:12:38;23.27;;;12.80;;
1344;SDS011;15375;48.540;9.268;2024-03-02T04:15:07;20.60;;;12.53;;
1344;SDS011;15375;48.540;9.268;2024-03-02T04:17:33;19.33;;;13.50;;
1344;SDS011;15375;48.540;9.268;2024-03-02T04:19:59;17.00;;;12.77;;
1344;SDS011;15375;48.540;9.268;2024-03-02T04:22:25;22.43;;;13.33;;
1344;SDS011;15375;48.540;9.268;2024-03-02T04:24:52;25.27;;;15.17;;
1344;SDS011;15375;48.540;9.268;2024-03-02T04:27:17;17.83;;;12.33;;
1344;SDS011;15375;48.540;9.268;2024-03-02T04:29:42;23.83;;;13.17;;
1344;SDS011;15375;48.540;9.268;2024-03-02T04:32:08;18.37;;;12.33;;
1344;SDS011;15375;48.540;9.268;2024-03-02T04:34:33;21.20;;;13.73;;
1344;SDS011;15375;48.540;9.268;2024-03-02T04:36:58;21.83;;;13.50;;
1344;SDS011;15375;48.540;9.268;2024-03-02T04:39:24;19.17;;;12.20;;
1344;SDS011;15375;48.540;9.268;2024-03-02T04:41:49;23.70;;;14.97;;
1344;SDS011;15375;48.540;9.268;2024-03-02T04:44:15;21.80;;;15.37;;
1344;SDS011;15375;48.540;9.268;2024-03-02T04:46:40;23.10;;;14.63;;
1344;SDS011;15375;48.540;9.268;2024-03-02T04:49:06;20.40;;;13.33;;
1344;SDS011;15375;48.540;9.268;2024-03-02T04:51:31;39.83;;;14.13;;
1344;SDS011;15375;48.540;9.268;2024-03-02T04:53:56;21.30;;;13.63;;
1344;SDS011;15375;48.540;9.268;2024-03-02T04:56:22;19.60;;;13.47;;
1344;SDS011;15375;48.540;9.268;2024-03-02T04:58:56;20.20;;;13.00;;
1344;SDS011;15375;48.540;9.268;2024-03-02T05:01:21;19.17;;;13.17;;
1344;SDS011;15375;48.540;9.268;2024-03-02T05:03:47;20.60;;;12.47;;
1344;SDS011;15375;48.540;9.268;2024-03-02T05:06:12;19.77;;;12.53;;
1344;SDS011;15375;48.540;9.268;2024-03-02T05:08:37;19.17;;;11.90;;
1344;SDS011;15375;48.540;9.268;2024-03-02T05:11:03;16.30;;;11.50;;
1344;SDS011;15375;48.540;9.268;2024-03-02T05:13:47;15.10;;;10.87;;
1344;SDS011;15375;48.540;9.268;2024-03-02T05:16:12;19.77;;;12.20;;
1344;SDS011;15375;48.540;9.268;2024-03-02T05:18:37;16.17;;;11.70;;
1344;SDS011;15375;48.540;9.268;2024-03-02T05:21:03;19.60;;;13.27;;
1344;SDS011;15375;48.540;9.268;2024-03-02T05:23:28;22.53;;;12.87;;
1344;SDS011;15375;48.540;9.268;2024-03-02T05:25:54;19.80;;;13.53;;
1344;SDS011;15375;48.540;9.268;2024-03-02T05:28:19;18.17;;;12.73;;
1344;SDS011;15375;48.540;9.268;2024-03-02T05:30:44;20.53;;;12.50;;
1344;SDS011;15375;48.540;9.268;2024-03-02T05:33:10;22.63;;;11.73;;
1344;SDS011;15375;48.540;9.268;2024-03-02T05:35:35;20.27;;;13.30;;
1344;SDS011;15375;48.540;9.268;2024-03-02T05:38:00;15.20;;;12.63;;
1344;SDS011;15375;48.540;9.268;2024-03-02T05:40:26;20.43;;;13.40;;
1344;SDS011;15375;48.540;9.268;2024-03-02T05:42:51;22.57;;;13.00;;
1344;SDS011;15375;48.540;9.268;2024-03-02T05:45:16;23.23;;;14.23;;
1344;SDS011;15375;48.540;9.268;2024-03-02T05:47:42;20.07;;;13.37;;
1344;SDS011;15375;48.540;9.268;2024-03-02T05:50:07;19.40;;;13.40;;
1344;SDS011;15375;48.540;9.268;2024-03-02T05:52:33;19.37;;;13.50;;
1344;SDS011;15375;48.540;9.268;2024-03-02T05:54:58;20.67;;;12.97;;
1344;SDS011;15375;48.540;9.268;2024-03-02T05:57:24;18.70;;;12.00;;
1344;SDS011;15375;48.540;9.268;2024-03-02T06:00:08;17.77;;;11.73;;
1344;SDS011;15375;48.540;9.268;2024-03-02T06:02:34;19.83;;;12.03;;
1344;SDS011;15375;48.540;9.268;2024-03-02T06:05:00;18.60;;;12.10;;
1344;SDS011;15375;48.540;9.268;2024-03-02T06:07:29;20.00;;;13.80;;
1344;SDS011;15375;48.540;9.268;2024-03-02T06:09:55;17.43;;;12.70;;
1344;SDS011;15375;48.540;9.268;2024-03-02T06:12:22;25.07;;;13.57;;
1344;SDS011;15375;48.540;9.268;2024-03-02T06:14:48;22.93;;;12.77;;
1344;SDS011;15375;48.540;9.268;2024-03-02T06:17:13;20.90;;;11.97;;
1344;SDS011;15375;48.540;9.268;2024-03-02T06:19:38;19.77;;;12.23;;
1344;SDS011;15375;48.540;9.268;2024-03-02T06:22:04;19.50;;;11.70;;
1344;SDS011;15375;48.540;9.268;2024-03-02T06:24:30;20.00;;;11.70;;
1344;SDS011;15375;48.540;9.268;2024-03-02T06:26:55;18.17;;;11.80;;
1344;SDS011;15375;48.540;9.268;2024-03-02T06:29:21;18.47;;;11.97;;
1344;SDS011;15375;48.540;9.268;2024-03-02T06:31:46;18.10;;;10.67;;
1344;SDS011;15375;48.540;9.268;2024-03-02T06:34:12;18.97;;;12.00;;
1344;SDS011;15375;48.540;9.268;2024-03-02T06:36:38;21.90;;;11.67;;
1344;SDS011;15375;48.540;9.268;2024-03-02T06:39:05;19.97;;;12.30;;
1344;SDS011;15375;48.540;9.268;2024-03-02T06:41:30;18.53;;;12.13;;
1344;SDS011;15375;48.540;9.268;2024-03-02T06:43:56;17.77;;;11.47;;
1344;SDS011;15375;48.540;9.268;2024-03-02T06:46:25;16.27;;;11.30;;
1344;SDS011;15375;48.540;9.268;2024-03-02T06:48:50;16.17;;;11.27;;
1344;SDS011;15375;48.540;9.268;2024-03-02T06:51:15;14.83;;;11.70;;
1344;SDS011;15375;48.540;9.268;2024-03-02T06:53:41;30.73;;;11.73;;
1344;SDS011;15375;48.540;9.268;2024-03-02T06:56:07;20.20;;;12.30;;
1344;SDS011;15375;48.540;9.268;2024-03-02T06:58:33;14.70;;;10.77;;
1344;SDS011;15375;48.540;9.268;2024-03-02T07:00:58;18.93;;;11.90;;
1344;SDS011;15375;48.540;9.268;2024-03-02T07:03:25;17.63;;;10.70;;
1344;SDS011;15375;48.540;9.268;2024-03-02T07:05:51;18.40;;;11.50;;
1344;SDS011;15375;48.540;9.268;2024-03-02T07:08:16;20.97;;;12.40;;
1344;SDS011;15375;48.540;9.268;2024-03-02T07:10:41;13.03;;;9.67;;
1344;SDS011;15375;48.540;9.268;2024-03-02T07:13:07;15.73;;;10.20;;
1344;SDS011;15375;48.540;9.268;2024-03-02T07:15:32;17.53;;;11.13;;
1344;SDS011;15375;48.540;9.268;2024-03-02T07:18:16;13.20;;;10.23;;
1344;SDS011;15375;48.540;9.268;2024-03-02T07:20:42;13.10;;;9.27;;
1344;SDS011;15375;48.540;9.268;2024-03-02T07:23:07;14.50;;;10.13;;
1344;SDS011;15375;48.540;9.268;2024-03-02T07:25:34;13.53;;;9.60;;
1344;SDS011;15375;48.540;9.268;2024-03-02T07:27:59;10.50;;;9.40;;
1344;SDS011;15375;48.540;9.268;2024-03-02T07:30:25;13.23;;;10.13;;
1344;SDS011;15375;48.540;9.268;2024-03-02T07:32:50;10.80;;;7.90;;
1344;SDS011;15375;48.540;9.268;2024-03-02T07:35:18;9.30;;;7.50;;
1344;SDS011;15375;48.540;9.268;2024-03-02T07:37:46;8.93;;;8.03;;
1344;SDS011;15375;48.540;9.268;2024-03-02T07:40:11;10.63;;;7.40;;
1344;SDS011;15375;48.540;9.268;2024-03-02T07:42:38;10.93;;;8.80;;
1344;SDS011;15375;48.540;9.268;2024-03-02T07:45:04;9.37;;;7.37;;
1344;SDS011;15375;48.540;9.268;2024-03-02T07:47:30;9.80;;;8.30;;
1344;SDS011;15375;48.540;9.268;2024-03-02T07:49:55;9.57;;;7.80;;
1344;SDS011;15375;48.540;9.268;2024-03-02T07:52:21;9.70;;;7.60;;
1344;SDS011;15375;48.540;9.268;2024-03-02T07:54:46;9.80;;;8.20;;
1344;SDS011;15375;48.540;9.268;2024-03-02T07:57:11;10.60;;;8.27;;
1344;SDS011;15375;48.540;9.268;2024-03-02T07:59:37;10.63;;;8.13;;
1344;SDS011;15375;48.540;9.268;2024-03-02T08:02:02;9.77;;;6.80;;
1344;SDS011;15375;48.540;9.268;2024-03-02T08:04:28;12.50;;;9.10;;
1344;SDS011;15375;48.540;9.268;2024-03-02T08:06:53;10.23;;;8.47;;
1344;SDS011;15375;48.540;9.268;2024-03-02T08:09:19;10.00;;;8.20;;
1344;SDS011;15375;48.540;9.268;2024-03-02T08:11:45;12.00;;;9.10;;
1344;SDS011;15375;48.540;9.268;2024-03-02T08:14:10;10.83;;;8.97;;
1344;SDS011;15375;48.540;9.268;2024-03-02T08:16:35;11.50;;;9.53;;
1344;SDS011;15375;48.540;9.268;2024-03-02T08:19:01;11.73;;;9.77;;
1344;SDS011;15375;48.540;9.268;2024-03-02T08:21:26;11.47;;;9.43;;
1344;SDS011;15375;48.540;9.268;2024-03-02T08:23:55;16.57;;;10.73;;
1344;SDS011;15375;48.540;9.268;2024-03-02T08:26:22;13.77;;;11.03;;
1344;SDS011;15375;48.540;9.268;2024-03-02T08:28:47;13.90;;;12.40;;
1344;SDS011;15375;48.540;9.268;2024-03-02T08:31:12;14.73;;;12.93;;
1344;SDS011;15375;48.540;9.268;2024-03-02T08:33:38;13.53;;;12.13;;
1344;SDS011;15375;48.540;9.268;2024-03-02T08:36:03;14.37;;;10.53;;
1344;SDS011;15375;48.540;9.268;2024-03-02T08:38:29;17.20;;;10.60;;
1344;SDS011;15375;48.540;9.268;2024-03-02T08:40:54;12.43;;;9.73;;
1344;SDS011;15375;48.540;9.268;2024-03-02T08:43:20;6.33;;;5.73;;
1344;SDS011;15375;48.540;9.268;2024-03-02T08:45:45;7.07;;;6.00;;
1344;SDS011;15375;48.540;9.268;2024-03-02T08:48:12;8.10;;;5.50;;
1344;SDS011;15375;48.540;9.268;2024-03-02T08:50:37;5.00;;;4.50;;
1344;SDS011;15375;48.540;9.268;2024-03-02T08:53:03;5.60;;;4.90;;
1344;SDS011;15375;48.540;9.268;2024-03-02T08:55:29;5.27;;;4.60;;
1344;SDS011;15375;48.540;9.268;2024-03-02T08:57:55;5.13;;;4.60;;
1344;SDS011;15375;48.540;9.268;2024-03-02T09:00:21;5.27;;;4.77;;
1344;SDS011;15375;48.540;9.268;2024-03-02T09:02:47;4.90;;;4.40;;
1344;SDS011;15375;48.540;9.268;2024-03-02T09:05:12;5.60;;;4.47;;
1344;SDS011;15375;48.540;9.268;2024-03-02T09:07:38;5.80;;;4.07;;
1344;SDS011;15375;48.540;9.268;2024-03-02T09:10:07;5.90;;;4.10;;
1344;SDS011;15375;48.540;9.268;2024-03-02T09:12:32;7.33;;;5.20;;
1344;SDS011;15375;48.540;9.268;2024-03-02T09:14:59;9.60;;;8.37;;
1344;SDS011;15375;48.540;9.268;2024-03-02T09:17:26;8.40;;;7.47;;
1344;SDS011;15375;48.540;9.268;2024-03-02T09:19:52;9.77;;;7.23;;
1344;SDS011;15375;48.540;9.268;2024-03-02T09:22:19;7.90;;;7.10;;
1344;SDS011;15375;48.540;9.268;2024-03-02T09:24:45;8.63;;;6.00;;
1344;SDS011;15375;48.540;9.268;2024-03-02T09:27:10;6.20;;;5.33;;
1344;SDS011;15375;48.540;9.268;2024-03-02T09:29:36;6.30;;;5.57;;
1344;SDS011;15375;48.540;9.268;2024-03-02T09:32:01;5.23;;;4.73;;
1344;SDS011;15375;48.540;9.268;2024-03-02T09:34:27;5.20;;;4.63;;
1344;SDS011;15375;48.540;9.268;2024-03-02T09:36:52;5.90;;;4.87;;
1344;SDS011;15375;48.540;9.268;2024-03-02T09:39:17;7.10;;;4.53;;
1344;SDS011;15375;48.540;9.268;2024-03-02T09:41:43;6.07;;;5.57;;
1344;SDS011;15375;48.540;9.268;2024-03-02T09:44:09;7.00;;;6.30;;
1344;SDS011;15375;48.540;9.268;2024-03-02T09:46:34;5.80;;;5.23;;
1344;SDS011;15375;48.540;9.268;2024-03-02T09:49:01;5.30;;;4.80;;
1344;SDS011;15375;48.540;9.268;2024-03-02T09:51:27;5.57;;;5.07;;
1344;SDS011;15375;48.540;9.268;2024-03-02T09:53:52;7.37;;;6.67;;
1344;SDS011;15375;48.540;9.268;2024-03-02T09:56:20;5.90;;;5.40;;
1344;SDS011;15375;48.540;9.268;2024-03-02T09:58:46;6.03;;;5.40;;
1344;SDS011;15375;48.540;9.268;2024-03-02T10:01:12;5.90;;;5.00;;
1344;SDS011;15375;48.540;9.268;2024-03-02T10:03:37;4.83;;;4.40;;
1344;SDS011;15375;48.540;9.268;2024-03-02T10:08:49;4.13;;;3.73;;
1344;SDS011;15375;48.540;9.268;2024-03-02T10:11:31;4.93;;;4.43;;
1344;SDS011;15375;48.540;9.268;2024-03-02T10:14:07;5.10;;;4.47;;
1344;SDS011;15375;48.540;9.268;2024-03-02T10:16:40;4.77;;;3.93;;
1344;SDS011;15375;48.540;9.268;2024-03-02T10:19:22;4.67;;;3.90;;
1344;SDS011;15375;48.540;9.268;2024-03-02T10:21:48;4.53;;;3.80;;
1344;SDS011;15375;48.540;9.268;2024-03-02T10:24:15;3.77;;;3.37;;
1344;SDS011;15375;48.540;9.268;2024-03-02T10:26:41;5.07;;;3.60;;
1344;SDS011;15375;48.540;9.268;2024-03-02T10:29:09;4.27;;;3.30;;
1344;SDS011;15375;48.540;9.268;2024-03-02T10:31:38;2.70;;;2.50;;
1344;SDS011;15375;48.540;9.268;2024-03-02T10:34:05;5.90;;;5.30;;
1344;SDS011;15375;48.540;9.268;2024-03-02T10:36:31;5.23;;;4.83;;
1344;SDS011;15375;48.540;9.268;2024-03-02T10:38:59;4.80;;;4.30;;
1344;SDS011;15375;48.540;9.268;2024-03-02T10:41:27;3.90;;;3.37;;
1344;SDS011;15375;48.540;9.268;2024-03-02T10:43:54;4.97;;;4.33;;
1344;SDS011;15375;48.540;9.268;2024-03-02T10:46:26;4.70;;;4.20;;
1344;SDS011;15375;48.540;9.268;2024-03-02T10:48:55;4.13;;;3.83;;
1344;SDS011;15375;48.540;9.268;2024-03-02T10:51:27;4.67;;;3.80;;
1344;SDS011;15375;48.540;9.268;2024-03-02T10:53:56;3.53;;;3.20;;
1344;SDS011;15375;48.540;9.268;2024-03-02T10:56:27;3.83;;;2.90;;
1344;SDS011;15375;48.540;9.268;2024-03-02T10:58:55;3.90;;;3.60;;
1344;SDS011;15375;48.540;9.268;2024-03-02T11:01:31;4.10;;;3.77;;
1344;SDS011;15375;48.540;9.268;2024-03-02T11:03:58;5.37;;;4.80;;
1344;SDS011;15375;48.540;9.268;2024-03-02T11:06:24;5.80;;;5.30;;
1344;SDS011;15375;48.540;9.268;2024-03-02T11:08:53;5.23;;;4.60;;
1344;SDS011;15375;48.540;9.268;2024-03-02T11:11:27;4.90;;;4.40;;
1344;SDS011;15375;48.540;9.268;2024-03-02T11:13:56;4.00;;;3.60;;
1344;SDS011;15375;48.540;9.268;2024-03-02T11:16:32;3.50;;;3.30;;
1344;SDS011;15375;48.540;9.268;2024-03-02T11:19:02;3.53;;;2.83;;
1344;SDS011;15375;48.540;9.268;2024-03-02T11:21:31;3.00;;;2.80;;
1344;SDS011;15375;48.540;9.268;2024-03-02T11:23:58;4.33;;;3.93;;
1344;SDS011;15375;48.540;9.268;2024-03-02T11:26:23;3.17;;;2.90;;
1344;SDS011;15375;48.540;9.268;2024-03-02T11:28:49;3.53;;;3.20;;
1344;SDS011;15375;48.540;9.268;2024-03-02T11:31:15;2.87;;;2.67;;
1344;SDS011;15375;48.540;9.268;2024-03-02T11:33:40;1.70;;;1.47;;
1344;SDS011;15375;48.540;9.268;2024-03-02T11:36:06;2.57;;;2.37;;
1344;SDS011;15375;48.540;9.268;2024-03-02T11:38:33;1.83;;;1.73;;
1344;SDS011;15375;48.540;9.268;2024-03-02T11:40:59;2.57;;;1.80;;
1344;SDS011;15375;48.540;9.268;2024-03-02T11:43:30;2.17;;;1.73;;
1344;SDS011;15375;48.540;9.268;2024-03-02T11:46:00;1.80;;;1.63;;
1344;SDS011;15375;48.540;9.268;2024-03-02T11:48:29;1.60;;;1.50;;
1344;SDS011;15375;48.540;9.268;2024-03-02T11:50:57;2.30;;;2.10;;
1344;SDS011;15375;48.540;9.268;2024-03-02T11:53:23;1.57;;;1.40;;
1344;SDS011;15375;48.540;9.268;2024-03-02T11:55:49;1.70;;;1.60;;
1344;SDS011;15375;48.540;9.268;2024-03-02T11:58:15;2.53;;;1.90;;
1344;SDS011;15375;48.540;9.268;2024-03-02T12:00:42;1.57;;;1.40;;
1344;SDS011;15375;48.540;9.268;2024-03-02T12:03:10;1.43;;;1.33;;
1344;SDS011;15375;48.540;9.268;2024-03-02T12:05:38;1.47;;;1.37;;
1344;SDS011;15375;48.540;9.268;2024-03-02T12:08:05;1.50;;;1.37;;
1344;SDS011;15375;48.540;9.268;2024-03-02T12:10:31;1.90;;;1.70;;
1344;SDS011;15375;48.540;9.268;2024-03-02T12:15:28;2.70;;;1.73;;
1344;SDS011;15375;48.540;9.268;2024-03-02T12:17:55;1.50;;;1.37;;
1344;SDS011;15375;48.540;9.268;2024-03-02T12:20:21;1.40;;;1.30;;
1344;SDS011;15375;48.540;9.268;2024-03-02T12:22:49;1.47;;;1.37;;
1344;SDS011;15375;48.540;9.268;2024-03-02T12:25:18;1.20;;;1.10;;
1344;SDS011;15375;48.540;9.268;2024-03-02T12:27:45;1.50;;;1.40;;
1344;SDS011;15375;48.540;9.268;2024-03-02T12:30:11;4.43;;;2.07;;
1344;SDS011;15375;48.540;9.268;2024-03-02T12:32:38;1.40;;;1.30;;
1344;SDS011;15375;48.540;9.268;2024-03-02T12:35:05;1.33;;;1.23;;
1344;SDS011;15375;48.540;9.268;2024-03-02T12:37:42;1.30;;;1.20;;
1344;SDS011;15375;48.540;9.268;2024-03-02T12:40:11;1.60;;;1.50;;
1344;SDS011;15375;48.540;9.268;2024-03-02T12:42:38;1.37;;;1.27;;
1344;SDS011;15375;48.540;9.268;2024-03-02T12:45:04;1.10;;;1.00;;
1344;SDS011;15375;48.540;9.268;2024-03-02T12:47:31;2.40;;;1.50;;
1344;SDS011;15375;48.540;9.268;2024-03-02T12:49:58;1.20;;;1.10;;
1344;SDS011;15375;48.540;9.268;2024-03-02T12:52:24;1.60;;;1.10;;
1344;SDS011;15375;48.540;9.268;2024-03-02T12:54:49;1.20;;;1.10;;
1344;SDS011;15375;48.540;9.268;2024-03-02T12:57:18;1.20;;;1.07;;
1344;SDS011;15375;48.540;9.268;2024-03-02T12:59:47;1.40;;;1.30;;
1344;SDS011;15375;48.540;9.268;2024-03-02T13:02:19;1.90;;;1.50;;
1344;SDS011;15375;48.540;9.268;2024-03-02T13:04:51;1.10;;;1.00;;
1344;SDS011;15375;48.540;9.268;2024-03-02T13:07:17;1.60;;;1.50;;
1344;SDS011;15375;48.540;9.268;2024-03-02T13:09:44;1.73;;;1.00;;
1344;SDS011;15375;48.540;9.268;2024-03-02T13:12:11;1.57;;;1.27;;
1344;SDS011;15375;48.540;9.268;2024-03-02T13:14:36;1.63;;;1.53;;
1344;SDS011;15375;48.540;9.268;2024-03-02T13:17:02;1.23;;;1.10;;
1344;SDS011;15375;48.540;9.268;2024-03-02T13:19:30;1.10;;;1.10;;
1344;SDS011;15375;48.540;9.268;2024-03-02T13:21:57;1.40;;;1.30;;
1344;SDS011;15375;48.540;9.268;2024-03-02T13:24:22;2.67;;;1.07;;
1344;SDS011;15375;48.540;9.268;2024-03-02T13:26:50;2.20;;;1.30;;
1344;SDS011;15375;48.540;9.268;2024-03-02T13:29:20;1.23;;;1.13;;
1344;SDS011;15375;48.540;9.268;2024-03-02T13:31:46;1.70;;;1.17;;
1344;SDS011;15375;48.540;9.268;2024-03-02T13:34:11;1.57;;;1.10;;
1344;SDS011;15375;48.540;9.268;2024-03-02T13:36:37;0.97;;;0.87;;
1344;SDS011;15375;48.540;9.268;2024-03-02T13:39:03;2.47;;;1.20;;
1344;SDS011;15375;48.540;9.268;2024-03-02T13:41:30;0.73;;;0.67;;
1344;SDS011;15375;48.540;9.268;2024-03-02T13:43:56;1.00;;;0.90;;
1344;SDS011;15375;48.540;9.268;2024-03-02T13:46:21;1.23;;;1.13;;
1344;SDS011;15375;48.540;9.268;2024-03-02T13:48:47;1.20;;;1.10;;
1344;SDS011;15375;48.540;9.268;2024-03-02T13:51:12;1.23;;;1.13;;
1344;SDS011;15375;48.540;9.268;2024-03-02T13:53:37;0.73;;;0.73;;
1344;SDS011;15375;48.540;9.268;2024-03-02T13:56:03;1.00;;;1.00;;
1344;SDS011;15375;48.540;9.268;2024-03-02T13:58:31;1.27;;;0.80;;
1344;SDS011;15375;48.540;9.268;2024-03-02T14:00:57;1.50;;;0.87;;
1344;SDS011;15375;48.540;9.268;2024-03-02T14:03:22;0.80;;;0.80;;
1344;SDS011;15375;48.540;9.268;2024-03-02T14:05:48;1.00;;;0.90;;
1344;SDS011;15375;48.540;9.268;2024-03-02T14:08:15;1.20;;;1.10;;
1344;SDS011;15375;48.540;9.268;2024-03-02T14:10:40;1.53;;;1.00;;
1344;SDS011;15375;48.540;9.268;2024-03-02T14:13:07;1.40;;;1.13;;
1344;SDS011;15375;48.540;9.268;2024-03-02T14:15:33;1.30;;;1.20;;
1344;SDS011;15375;48.540;9.268;2024-03-02T14:17:58;1.40;;;1.30;;
1344;SDS011;15375;48.540;9.268;2024-03-02T14:20:24;1.30;;;1.20;;
1344;SDS011;15375;48.540;9.268;2024-03-02T14:22:49;3.10;;;1.20;;
1344;SDS011;15375;48.540;9.268;2024-03-02T14:25:15;1.37;;;1.10;;
1344;SDS011;15375;48.540;9.268;2024-03-02T14:27:41;3.70;;;1.47;;
1344;SDS011;15375;48.540;9.268;2024-03-02T14:30:07;1.37;;;1.23;;
1344;SDS011;15375;48.540;9.268;2024-03-02T14:32:32;2.17;;;1.37;;
1344;SDS011;15375;48.540;9.268;2024-03-02T14:34:58;1.67;;;1.40;;
1344;SDS011;15375;48.540;9.268;2024-03-02T14:37:23;1.77;;;1.50;;
1344;SDS011;15375;48.540;9.268;2024-03-02T14:39:49;2.40;;;1.97;;
1344;SDS011;15375;48.540;9.268;2024-03-02T14:42:15;1.83;;;1.60;;
1344;SDS011;15375;48.540;9.268;2024-03-02T14:44:40;1.80;;;1.70;;
1344;SDS011;15375;48.540;9.268;2024-03-02T14:47:06;2.60;;;1.93;;
1344;SDS011;15375;48.540;9.268;2024-03-02T14:49:34;1.57;;;1.47;;